createdAt,value
2018-03-22T00:00:51.699Z,0
2018-03-22T00:01:51.426Z,0
2018-03-22T00:02:51.918Z,0
2018-03-22T00:03:51.903Z,0
2018-03-22T00:04:51.891Z,0
2018-03-22T00:05:51.896Z,0
2018-03-22T00:06:51.872Z,0
2018-03-22T00:07:51.928Z,0
2018-03-22T00:08:51.843Z,0
2018-03-22T00:09:51.577Z,0
2018-03-22T00:10:51.833Z,0
2018-03-22T00:11:51.313Z,0
2018-03-22T00:12:51.534Z,0
2018-03-22T00:13:51.821Z,0
2018-03-22T00:14:51.257Z,0
2018-03-22T00:15:51.749Z,0
2018-03-22T00:16:51.746Z,0
2018-03-22T00:17:51.750Z,0
2018-03-22T00:18:51.214Z,0
2018-03-22T00:19:51.700Z,0
2018-03-22T00:20:51.445Z,0
2018-03-22T00:21:51.425Z,0
2018-03-22T00:22:51.664Z,0
2018-03-22T00:23:51.649Z,0
2018-03-22T00:24:51.635Z,0
2018-03-22T00:25:51.623Z,0
2018-03-22T00:26:51.608Z,0
2018-03-22T00:27:51.344Z,0
2018-03-22T00:28:51.586Z,0
2018-03-22T00:29:51.570Z,0
2018-03-22T00:30:51.566Z,0
2018-03-22T00:31:51.552Z,0
2018-03-22T00:32:51.531Z,0
2018-03-22T00:33:51.520Z,0
2018-03-22T00:34:51.496Z,0
2018-03-22T00:35:51.235Z,0
2018-03-22T00:36:51.495Z,0
2018-03-22T00:37:51.457Z,0
2018-03-22T00:38:51.194Z,0
2018-03-22T00:39:51.451Z,0
2018-03-22T00:40:51.170Z,0
2018-03-22T00:41:51.164Z,0
2018-03-22T00:42:51.150Z,0
2018-03-22T00:43:51.383Z,0
2018-03-22T00:44:51.380Z,0
2018-03-22T00:45:51.099Z,0
2018-03-22T00:46:51.345Z,0
2018-03-22T00:47:51.083Z,0
2018-03-22T00:48:51.322Z,0
2018-03-22T00:49:51.309Z,0
2018-03-22T00:50:51.295Z,0
2018-03-22T00:51:51.283Z,0
2018-03-22T00:52:50.763Z,0
2018-03-22T00:53:51.257Z,0
2018-03-22T00:54:51.243Z,0
2018-03-22T00:55:51.240Z,0
2018-03-22T00:56:51.222Z,0
2018-03-22T00:57:50.957Z,0
2018-03-22T00:58:51.193Z,0
2018-03-22T00:59:50.922Z,0
2018-03-22T01:00:50.663Z,0
2018-03-22T01:01:50.897Z,0
2018-03-22T01:02:51.141Z,0
2018-03-22T01:03:51.137Z,0
2018-03-22T01:04:50.867Z,0
2018-03-22T01:05:50.844Z,0
2018-03-22T01:06:50.834Z,0
2018-03-22T01:07:51.077Z,0
2018-03-22T01:08:50.808Z,0
2018-03-22T01:09:51.060Z,0
2018-03-22T01:10:50.547Z,0
2018-03-22T01:11:50.780Z,0
2018-03-22T01:12:51.011Z,0
2018-03-22T01:13:50.996Z,0
2018-03-22T01:14:50.992Z,0
2018-03-22T01:15:50.716Z,0
2018-03-22T01:16:50.721Z,0
2018-03-22T01:17:50.998Z,0
2018-03-22T01:18:50.931Z,0
2018-03-22T01:19:50.664Z,0
2018-03-22T01:20:50.405Z,0
2018-03-22T01:21:50.384Z,0
2018-03-22T01:22:50.915Z,0
2018-03-22T01:23:50.615Z,0
2018-03-22T01:24:50.346Z,0
2018-03-22T01:25:50.840Z,0
2018-03-22T01:26:50.838Z,0
2018-03-22T01:27:50.817Z,0
2018-03-22T01:28:50.297Z,0
2018-03-22T01:29:50.550Z,0
2018-03-22T01:30:50.524Z,0
2018-03-22T01:31:50.769Z,0
2018-03-22T01:32:50.750Z,0
2018-03-22T01:33:50.742Z,0
2018-03-22T01:34:50.725Z,0
2018-03-22T01:35:50.461Z,0
2018-03-22T01:36:50.703Z,0
2018-03-22T01:37:50.693Z,0
2018-03-22T01:38:50.420Z,0
2018-03-22T01:39:50.657Z,0
2018-03-22T01:40:50.644Z,0
2018-03-22T01:41:50.382Z,0
2018-03-22T01:42:50.630Z,0
2018-03-22T01:43:50.606Z,0
2018-03-22T01:44:50.596Z,0
2018-03-22T01:45:50.594Z,0
2018-03-22T01:46:50.574Z,0
2018-03-22T01:47:50.554Z,0
2018-03-22T01:48:50.292Z,0
2018-03-22T01:49:50.024Z,0
2018-03-22T01:50:50.262Z,0
2018-03-22T01:51:50.250Z,0
2018-03-22T01:52:49.991Z,0
2018-03-22T01:53:50.478Z,0
2018-03-22T01:54:50.463Z,0
2018-03-22T01:55:50.458Z,0
2018-03-22T01:56:50.184Z,0
2018-03-22T01:57:50.424Z,0
2018-03-22T01:58:50.412Z,0
2018-03-22T01:59:50.149Z,0
2018-03-22T02:00:49.879Z,0
2018-03-22T02:01:50.477Z,0
2018-03-22T02:02:50.359Z,0
2018-03-22T02:03:50.097Z,0
2018-03-22T02:04:50.332Z,0
2018-03-22T02:05:50.320Z,0
2018-03-22T02:06:50.315Z,0
2018-03-22T02:07:49.788Z,0
2018-03-22T02:08:50.028Z,0
2018-03-22T02:09:50.267Z,0
2018-03-22T02:10:50.256Z,0
2018-03-22T02:11:49.990Z,0
2018-03-22T02:12:50.229Z,0
2018-03-22T02:13:50.225Z,0
2018-03-22T02:14:50.218Z,0
2018-03-22T02:15:49.938Z,0
2018-03-22T02:16:49.671Z,0
2018-03-22T02:17:50.165Z,0
2018-03-22T02:18:50.152Z,0
2018-03-22T02:19:49.882Z,0
2018-03-22T02:20:50.124Z,0
2018-03-22T02:21:50.112Z,0
2018-03-22T02:22:49.841Z,0
2018-03-22T02:23:50.086Z,0
2018-03-22T02:24:50.088Z,0
2018-03-22T02:25:50.060Z,0
2018-03-22T02:26:49.793Z,0
2018-03-22T02:27:50.038Z,0
2018-03-22T02:28:49.765Z,0
2018-03-22T02:29:50.006Z,0
2018-03-22T02:30:49.755Z,0
2018-03-22T02:31:49.990Z,0
2018-03-22T02:32:49.714Z,0
2018-03-22T02:33:49.446Z,0
2018-03-22T02:34:49.685Z,0
2018-03-22T02:35:49.689Z,0
2018-03-22T02:36:49.403Z,0
2018-03-22T02:37:49.915Z,0
2018-03-22T02:38:49.894Z,0
2018-03-22T02:39:49.635Z,0
2018-03-22T02:40:49.604Z,0
2018-03-22T02:41:49.607Z,0
2018-03-22T02:42:50.106Z,0
2018-03-22T02:43:49.823Z,0
2018-03-22T02:44:49.817Z,0
2018-03-22T02:45:49.546Z,0
2018-03-22T02:46:49.274Z,0
2018-03-22T02:47:49.519Z,0
2018-03-22T02:48:49.754Z,0
2018-03-22T02:49:49.756Z,0
2018-03-22T02:50:49.735Z,0
2018-03-22T02:51:49.723Z,0
2018-03-22T02:52:49.444Z,0
2018-03-22T02:53:49.690Z,0
2018-03-22T02:54:49.675Z,0
2018-03-22T02:55:49.406Z,0
2018-03-22T02:56:49.390Z,0
2018-03-22T02:57:49.647Z,0
2018-03-22T02:58:49.362Z,0
2018-03-22T02:59:49.607Z,0
2018-03-22T03:00:49.589Z,0
2018-03-22T03:01:49.584Z,0
2018-03-22T03:02:49.587Z,0
2018-03-22T03:03:49.551Z,0
2018-03-22T03:04:49.283Z,0
2018-03-22T03:05:49.528Z,0
2018-03-22T03:06:49.523Z,0
2018-03-22T03:07:49.505Z,0
2018-03-22T03:08:49.483Z,0
2018-03-22T03:09:49.470Z,0
2018-03-22T03:10:49.455Z,0
2018-03-22T03:11:49.191Z,0
2018-03-22T03:12:49.184Z,0
2018-03-22T03:13:49.163Z,0
2018-03-22T03:14:49.404Z,0
2018-03-22T03:15:49.141Z,0
2018-03-22T03:16:49.374Z,0
2018-03-22T03:17:49.365Z,0
2018-03-22T03:18:49.097Z,0
2018-03-22T03:19:49.087Z,0
2018-03-22T03:20:48.817Z,0
2018-03-22T03:21:49.309Z,0
2018-03-22T03:22:49.298Z,0
2018-03-22T03:23:49.281Z,0
2018-03-22T03:24:49.281Z,0
2018-03-22T03:25:49.051Z,0
2018-03-22T03:26:48.994Z,0
2018-03-22T03:27:48.976Z,0
2018-03-22T03:28:49.216Z,0
2018-03-22T03:29:48.951Z,0
2018-03-22T03:30:49.202Z,0
2018-03-22T03:31:48.930Z,0
2018-03-22T03:32:49.165Z,0
2018-03-22T03:33:48.895Z,0
2018-03-22T03:34:48.884Z,0
2018-03-22T03:35:48.870Z,0
2018-03-22T03:36:49.107Z,0
2018-03-22T03:37:49.099Z,0
2018-03-22T03:38:48.836Z,0
2018-03-22T03:39:49.070Z,0
2018-03-22T03:40:48.812Z,0
2018-03-22T03:41:49.047Z,0
2018-03-22T03:42:48.788Z,0
2018-03-22T03:43:48.769Z,0
2018-03-22T03:44:49.008Z,0
2018-03-22T03:45:48.740Z,0
2018-03-22T03:46:48.987Z,0
2018-03-22T03:47:48.964Z,0
2018-03-22T03:48:48.699Z,0
2018-03-22T03:49:48.939Z,0
2018-03-22T03:50:48.924Z,0
2018-03-22T03:51:48.911Z,0
2018-03-22T03:52:48.649Z,0
2018-03-22T03:53:48.388Z,0
2018-03-22T03:54:48.869Z,0
2018-03-22T03:55:48.856Z,0
2018-03-22T03:56:48.845Z,0
2018-03-22T03:57:48.843Z,0
2018-03-22T03:58:48.817Z,0
2018-03-22T03:59:48.553Z,0
2018-03-22T04:00:48.805Z,0
2018-03-22T04:01:48.781Z,0
2018-03-22T04:02:48.769Z,0
2018-03-22T04:03:48.246Z,0
2018-03-22T04:04:48.740Z,0
2018-03-22T04:05:48.732Z,0
2018-03-22T04:06:48.455Z,0
2018-03-22T04:07:48.719Z,0
2018-03-22T04:08:48.433Z,0
2018-03-22T04:09:48.700Z,0
2018-03-22T04:10:48.655Z,0
2018-03-22T04:11:48.650Z,0
2018-03-22T04:12:48.633Z,0
2018-03-22T04:13:48.615Z,0
2018-03-22T04:14:48.353Z,0
2018-03-22T04:15:48.593Z,0
2018-03-22T04:16:48.321Z,0
2018-03-22T04:17:48.561Z,0
2018-03-22T04:18:48.546Z,0
2018-03-22T04:19:48.285Z,0
2018-03-22T04:20:48.526Z,0
2018-03-22T04:21:48.506Z,0
2018-03-22T04:22:48.239Z,0
2018-03-22T04:23:48.481Z,0
2018-03-22T04:24:48.467Z,0
2018-03-22T04:25:47.950Z,0
2018-03-22T04:26:48.478Z,0
2018-03-22T04:27:47.921Z,0
2018-03-22T04:28:48.417Z,0
2018-03-22T04:29:48.397Z,0
2018-03-22T04:30:48.131Z,0
2018-03-22T04:31:48.161Z,0
2018-03-22T04:32:48.360Z,0
2018-03-22T04:33:48.344Z,4
2018-03-22T04:34:48.331Z,4
2018-03-22T04:35:48.551Z,0
2018-03-22T04:36:48.050Z,0
2018-03-22T04:37:47.789Z,4
2018-03-22T04:38:48.279Z,4
2018-03-22T04:39:48.010Z,4
2018-03-22T04:40:47.997Z,8
2018-03-22T04:41:48.236Z,4
2018-03-22T04:42:48.222Z,8
2018-03-22T04:43:48.215Z,8
2018-03-22T04:44:48.197Z,8
2018-03-22T04:45:48.181Z,8
2018-03-22T04:46:48.174Z,12
2018-03-22T04:47:47.649Z,16
2018-03-22T04:48:48.145Z,16
2018-03-22T04:49:48.133Z,24
2018-03-22T04:50:48.119Z,24
2018-03-22T04:51:48.106Z,28
2018-03-22T04:52:48.092Z,36
2018-03-22T04:53:48.079Z,36
2018-03-22T04:54:47.808Z,44
2018-03-22T04:55:48.051Z,48
2018-03-22T04:56:48.040Z,56
2018-03-22T04:57:48.018Z,60
2018-03-22T04:58:47.753Z,72
2018-03-22T04:59:47.487Z,76
2018-03-22T05:00:47.979Z,88
2018-03-22T05:01:47.714Z,88
2018-03-22T05:02:47.703Z,96
2018-03-22T05:03:47.686Z,128
2018-03-22T05:04:47.932Z,156
2018-03-22T05:05:47.912Z,172
2018-03-22T05:06:47.650Z,192
2018-03-22T05:07:47.632Z,208
2018-03-22T05:08:47.878Z,216
2018-03-22T05:09:47.865Z,232
2018-03-22T05:10:47.600Z,244
2018-03-22T05:11:47.580Z,252
2018-03-22T05:12:47.821Z,264
2018-03-22T05:13:47.809Z,268
2018-03-22T05:14:47.547Z,276
2018-03-22T05:15:47.825Z,284
2018-03-22T05:16:47.777Z,284
2018-03-22T05:17:47.748Z,284
2018-03-22T05:18:47.798Z,280
2018-03-22T05:19:47.468Z,280
2018-03-22T05:20:47.456Z,280
2018-03-22T05:21:47.704Z,280
2018-03-22T05:22:47.689Z,288
2018-03-22T05:23:47.422Z,288
2018-03-22T05:24:47.152Z,300
2018-03-22T05:25:47.659Z,308
2018-03-22T05:26:47.644Z,312
2018-03-22T05:27:47.364Z,312
2018-03-22T05:28:47.351Z,320
2018-03-22T05:29:47.593Z,340
2018-03-22T05:30:47.324Z,364
2018-03-22T05:31:47.565Z,352
2018-03-22T05:32:47.323Z,380
2018-03-22T05:33:47.033Z,416
2018-03-22T05:34:47.274Z,452
2018-03-22T05:35:47.511Z,480
2018-03-22T05:36:46.988Z,512
2018-03-22T05:37:46.732Z,528
2018-03-22T05:38:47.471Z,544
2018-03-22T05:39:47.207Z,564
2018-03-22T05:40:47.187Z,588
2018-03-22T05:41:47.179Z,624
2018-03-22T05:42:47.190Z,684
2018-03-22T05:43:47.168Z,736
2018-03-22T05:44:47.182Z,792
2018-03-22T05:45:47.138Z,848
2018-03-22T05:46:47.110Z,916
2018-03-22T05:47:47.349Z,980
2018-03-22T05:48:47.082Z,1040
2018-03-22T05:49:47.075Z,1100
2018-03-22T05:50:47.057Z,1160
2018-03-22T05:51:47.047Z,1224
2018-03-22T05:52:47.302Z,1284
2018-03-22T05:53:47.016Z,1336
2018-03-22T05:54:46.764Z,1384
2018-03-22T05:55:47.246Z,1420
2018-03-22T05:56:47.234Z,1444
2018-03-22T05:57:47.234Z,1460
2018-03-22T05:58:46.953Z,1492
2018-03-22T05:59:47.190Z,1540
2018-03-22T06:00:46.942Z,1616
2018-03-22T06:01:46.922Z,1708
2018-03-22T06:02:46.654Z,1824
2018-03-22T06:03:46.641Z,1944
2018-03-22T06:04:47.145Z,2036
2018-03-22T06:05:46.867Z,2096
2018-03-22T06:06:46.858Z,2116
2018-03-22T06:07:47.093Z,2108
2018-03-22T06:08:46.837Z,2048
2018-03-22T06:09:47.057Z,1984
2018-03-22T06:10:46.541Z,1904
2018-03-22T06:11:46.557Z,1808
2018-03-22T06:12:47.020Z,1700
2018-03-22T06:13:47.015Z,1620
2018-03-22T06:14:47.004Z,1564
2018-03-22T06:15:46.996Z,1536
2018-03-22T06:16:46.976Z,1528
2018-03-22T06:17:46.958Z,1500
2018-03-22T06:18:46.945Z,1576
2018-03-22T06:19:46.940Z,1664
2018-03-22T06:20:46.428Z,1752
2018-03-22T06:21:46.912Z,1740
2018-03-22T06:22:46.915Z,1768
2018-03-22T06:23:46.383Z,1996
2018-03-22T06:24:46.370Z,1840
2018-03-22T06:25:46.698Z,1828
2018-03-22T06:26:46.850Z,1904
2018-03-22T06:27:46.584Z,2072
2018-03-22T06:28:46.819Z,2200
2018-03-22T06:29:46.804Z,2208
2018-03-22T06:30:46.798Z,2432
2018-03-22T06:31:46.796Z,2508
2018-03-22T06:32:46.785Z,2768
2018-03-22T06:33:46.755Z,2772
2018-03-22T06:34:46.747Z,2484
2018-03-22T06:35:46.729Z,2804
2018-03-22T06:36:46.463Z,2868
2018-03-22T06:37:46.706Z,2936
2018-03-22T06:38:46.440Z,2984
2018-03-22T06:39:46.693Z,3296
2018-03-22T06:40:46.160Z,3460
2018-03-22T06:41:46.709Z,3584
2018-03-22T06:42:46.652Z,4344
2018-03-22T06:43:46.378Z,4748
2018-03-22T06:44:46.378Z,4980
2018-03-22T06:45:46.607Z,5208
2018-03-22T06:46:46.598Z,5320
2018-03-22T06:47:46.585Z,5596
2018-03-22T06:48:46.059Z,5956
2018-03-22T06:49:46.334Z,6216
2018-03-22T06:50:46.542Z,6496
2018-03-22T06:51:46.548Z,6776
2018-03-22T06:52:46.268Z,6964
2018-03-22T06:53:46.580Z,7168
2018-03-22T06:54:46.250Z,7436
2018-03-22T06:55:46.484Z,7712
2018-03-22T06:56:46.243Z,7928
2018-03-22T06:57:46.485Z,8016
2018-03-22T06:58:46.456Z,7908
2018-03-22T06:59:45.928Z,7644
2018-03-22T07:00:46.433Z,7276
2018-03-22T07:01:46.422Z,6880
2018-03-22T07:02:46.175Z,6620
2018-03-22T07:03:46.425Z,6468
2018-03-22T07:04:46.402Z,6348
2018-03-22T07:05:46.368Z,6164
2018-03-22T07:06:46.385Z,5888
2018-03-22T07:07:46.351Z,5568
2018-03-22T07:08:46.075Z,5316
2018-03-22T07:09:46.318Z,5108
2018-03-22T07:10:46.311Z,4924
2018-03-22T07:11:46.072Z,4772
2018-03-22T07:12:46.036Z,4648
2018-03-22T07:13:46.298Z,4420
2018-03-22T07:14:46.724Z,4132
2018-03-22T07:15:46.295Z,3900
2018-03-22T07:16:46.015Z,3872
2018-03-22T07:17:46.265Z,3992
2018-03-22T07:18:46.104Z,4032
2018-03-22T07:19:45.956Z,4092
2018-03-22T07:20:46.194Z,4216
2018-03-22T07:21:45.936Z,4360
2018-03-22T07:22:45.919Z,4400
2018-03-22T07:23:45.654Z,4440
2018-03-22T07:24:46.152Z,4436
2018-03-22T07:25:46.146Z,4776
2018-03-22T07:26:45.877Z,5132
2018-03-22T07:27:45.872Z,5796
2018-03-22T07:28:46.104Z,6424
2018-03-22T07:29:45.838Z,6964
2018-03-22T07:30:46.086Z,7428
2018-03-22T07:31:45.827Z,7656
2018-03-22T07:32:46.064Z,7828
2018-03-22T07:33:45.826Z,7820
2018-03-22T07:34:46.036Z,7736
2018-03-22T07:35:46.029Z,7588
2018-03-22T07:36:46.032Z,7572
2018-03-22T07:37:46.013Z,7676
2018-03-22T07:38:45.759Z,7632
2018-03-22T07:39:45.995Z,7424
2018-03-22T07:40:45.970Z,6968
2018-03-22T07:41:45.715Z,6384
2018-03-22T07:42:45.450Z,5836
2018-03-22T07:43:45.685Z,5016
2018-03-22T07:44:45.952Z,4348
2018-03-22T07:45:45.924Z,4056
2018-03-22T07:46:45.396Z,3728
2018-03-22T07:47:45.639Z,3484
2018-03-22T07:48:45.626Z,3128
2018-03-22T07:49:45.892Z,3116
2018-03-22T07:50:45.879Z,3144
2018-03-22T07:51:45.851Z,3216
2018-03-22T07:52:46.066Z,3300
2018-03-22T07:53:45.826Z,3240
2018-03-22T07:54:45.818Z,3384
2018-03-22T07:55:45.819Z,3488
2018-03-22T07:56:45.796Z,3492
2018-03-22T07:57:45.785Z,3764
2018-03-22T07:58:45.290Z,3852
2018-03-22T07:59:45.511Z,3840
2018-03-22T08:00:45.752Z,3868
2018-03-22T08:01:45.479Z,3864
2018-03-22T08:02:45.752Z,3924
2018-03-22T08:03:45.706Z,4112
2018-03-22T08:04:45.188Z,4148
2018-03-22T08:05:45.475Z,4052
2018-03-22T08:06:45.678Z,3960
2018-03-22T08:07:45.665Z,3956
2018-03-22T08:08:45.683Z,4020
2018-03-22T08:09:45.638Z,3808
2018-03-22T08:10:45.626Z,3560
2018-03-22T08:11:45.360Z,3356
2018-03-22T08:12:44.837Z,3436
2018-03-22T08:13:45.596Z,3576
2018-03-22T08:14:45.581Z,3700
2018-03-22T08:15:45.320Z,3920
2018-03-22T08:16:45.549Z,4028
2018-03-22T08:17:45.281Z,4060
2018-03-22T08:18:45.545Z,4208
2018-03-22T08:19:45.262Z,4376
2018-03-22T08:20:45.257Z,4324
2018-03-22T08:21:45.484Z,4452
2018-03-22T08:22:45.474Z,4632
2018-03-22T08:23:45.462Z,4936
2018-03-22T08:24:45.193Z,5144
2018-03-22T08:25:45.456Z,5428
2018-03-22T08:26:45.694Z,5676
2018-03-22T08:27:44.665Z,5852
2018-03-22T08:28:45.144Z,6040
2018-03-22T08:29:45.137Z,6316
2018-03-22T08:30:45.379Z,6668
2018-03-22T08:31:45.369Z,7100
2018-03-22T08:32:45.170Z,7472
2018-03-22T08:33:44.836Z,7704
2018-03-22T08:34:45.338Z,7716
2018-03-22T08:35:45.311Z,7144
2018-03-22T08:36:45.049Z,6816
2018-03-22T08:37:45.051Z,6564
2018-03-22T08:38:45.030Z,5916
2018-03-22T08:39:44.769Z,5468
2018-03-22T08:40:45.264Z,5096
2018-03-22T08:41:44.734Z,4260
2018-03-22T08:42:45.279Z,4728
2018-03-22T08:43:44.724Z,4768
2018-03-22T08:44:45.248Z,4472
2018-03-22T08:45:45.219Z,4676
2018-03-22T08:46:44.700Z,4956
2018-03-22T08:47:45.218Z,4756
2018-03-22T08:48:45.203Z,4320
2018-03-22T08:49:44.932Z,4288
2018-03-22T08:50:45.247Z,4284
2018-03-22T08:51:44.928Z,4588
2018-03-22T08:52:44.891Z,4736
2018-03-22T08:53:45.119Z,5036
2018-03-22T08:54:45.153Z,5724
2018-03-22T08:55:44.822Z,5388
2018-03-22T08:56:44.843Z,4528
2018-03-22T08:57:45.092Z,4864
2018-03-22T08:58:44.838Z,6656
2018-03-22T08:59:45.272Z,7204
2018-03-22T09:00:44.549Z,6880
2018-03-22T09:01:44.997Z,7428
2018-03-22T09:02:44.747Z,7668
2018-03-22T09:03:44.975Z,7948
2018-03-22T09:04:44.728Z,8568
2018-03-22T09:05:44.441Z,9796
2018-03-22T09:06:44.707Z,10396
2018-03-22T09:07:44.817Z,10912
2018-03-22T09:08:44.464Z,10064
2018-03-22T09:09:44.422Z,8720
2018-03-22T09:10:44.922Z,8904
2018-03-22T09:11:45.118Z,8208
2018-03-22T09:12:44.622Z,7940
2018-03-22T09:13:44.620Z,9380
2018-03-22T09:14:44.608Z,9180
2018-03-22T09:15:44.606Z,10192
2018-03-22T09:16:44.901Z,10456
2018-03-22T09:17:44.594Z,10620
2018-03-22T09:18:45.087Z,11208
2018-03-22T09:19:44.584Z,12448
2018-03-22T09:20:44.405Z,12096
2018-03-22T09:21:44.278Z,12584
2018-03-22T09:22:44.782Z,12516
2018-03-22T09:23:45.097Z,13072
2018-03-22T09:24:44.241Z,12248
2018-03-22T09:25:44.518Z,8716
2018-03-22T09:26:44.766Z,9768
2018-03-22T09:27:44.478Z,11028
2018-03-22T09:28:44.961Z,12640
2018-03-22T09:29:44.695Z,12924
2018-03-22T09:30:44.663Z,12816
2018-03-22T09:31:44.579Z,12564
2018-03-22T09:32:44.734Z,13044
2018-03-22T09:33:44.406Z,12400
2018-03-22T09:34:44.624Z,13956
2018-03-22T09:35:44.619Z,14232
2018-03-22T09:36:44.653Z,15100
2018-03-22T09:37:44.628Z,17728
2018-03-22T09:38:44.693Z,17952
2018-03-22T09:39:44.572Z,17376
2018-03-22T09:40:44.298Z,18752
2018-03-22T09:41:44.298Z,15196
2018-03-22T09:42:44.525Z,14940
2018-03-22T09:43:44.532Z,15932
2018-03-22T09:44:44.507Z,15008
2018-03-22T09:45:44.499Z,13008
2018-03-22T09:46:44.482Z,13588
2018-03-22T09:47:44.490Z,13156
2018-03-22T09:48:44.463Z,12692
2018-03-22T09:49:44.226Z,11076
2018-03-22T09:50:44.235Z,10960
2018-03-22T09:51:44.435Z,11508
2018-03-22T09:52:44.228Z,10776
2018-03-22T09:53:44.668Z,11000
2018-03-22T09:54:44.467Z,11300
2018-03-22T09:55:44.410Z,10888
2018-03-22T09:56:44.500Z,10088
2018-03-22T09:57:44.469Z,11688
2018-03-22T09:58:44.137Z,11444
2018-03-22T09:59:44.663Z,11164
2018-03-22T10:00:44.367Z,11488
2018-03-22T10:01:44.370Z,11700
2018-03-22T10:02:44.330Z,11024
2018-03-22T10:03:44.078Z,10144
2018-03-22T10:04:44.303Z,11044
2018-03-22T10:05:44.302Z,10220
2018-03-22T10:06:44.028Z,9744
2018-03-22T10:07:44.020Z,10168
2018-03-22T10:08:44.023Z,10620
2018-03-22T10:09:44.022Z,10608
2018-03-22T10:10:44.242Z,10484
2018-03-22T10:11:44.226Z,10172
2018-03-22T10:12:43.967Z,10068
2018-03-22T10:13:44.212Z,10404
2018-03-22T10:14:43.944Z,8372
2018-03-22T10:15:44.188Z,8248
2018-03-22T10:16:44.178Z,8596
2018-03-22T10:17:44.180Z,8260
2018-03-22T10:18:44.150Z,8860
2018-03-22T10:19:43.886Z,8584
2018-03-22T10:20:44.165Z,8680
2018-03-22T10:21:44.282Z,8000
2018-03-22T10:22:43.613Z,7620
2018-03-22T10:23:44.115Z,7792
2018-03-22T10:24:44.102Z,7244
2018-03-22T10:25:43.828Z,7560
2018-03-22T10:26:44.064Z,7196
2018-03-22T10:27:44.063Z,7048
2018-03-22T10:28:44.057Z,7028
2018-03-22T10:29:43.788Z,7612
2018-03-22T10:30:44.358Z,6092
2018-03-22T10:31:44.012Z,7060
2018-03-22T10:32:44.067Z,7360
2018-03-22T10:33:44.017Z,6124
2018-03-22T10:34:44.020Z,5784
2018-03-22T10:35:43.997Z,5036
2018-03-22T10:36:43.995Z,6008
2018-03-22T10:37:43.948Z,6212
2018-03-22T10:38:43.973Z,5920
2018-03-22T10:39:43.680Z,6804
2018-03-22T10:40:43.916Z,5824
2018-03-22T10:41:43.898Z,5432
2018-03-22T10:42:43.985Z,5416
2018-03-22T10:43:43.912Z,4616
2018-03-22T10:44:43.398Z,5016
2018-03-22T10:45:43.899Z,5784
2018-03-22T10:46:43.599Z,6248
2018-03-22T10:47:43.612Z,6708
2018-03-22T10:48:43.884Z,6748
2018-03-22T10:49:43.883Z,5080
2018-03-22T10:50:43.813Z,5652
2018-03-22T10:51:43.791Z,4856
2018-03-22T10:52:43.800Z,4984
2018-03-22T10:53:43.519Z,5064
2018-03-22T10:54:43.805Z,5476
2018-03-22T10:55:44.073Z,5436
2018-03-22T10:56:43.510Z,5176
2018-03-22T10:57:43.742Z,4728
2018-03-22T10:58:43.734Z,6376
2018-03-22T10:59:43.463Z,7052
2018-03-22T11:00:43.704Z,8048
2018-03-22T11:01:43.697Z,8808
2018-03-22T11:02:43.733Z,8412
2018-03-22T11:03:43.716Z,5508
2018-03-22T11:04:43.689Z,5880
2018-03-22T11:05:43.661Z,5104
2018-03-22T11:06:43.703Z,5764
2018-03-22T11:07:43.643Z,5964
2018-03-22T11:08:43.602Z,6624
2018-03-22T11:09:43.596Z,8168
2018-03-22T11:10:43.323Z,7676
2018-03-22T11:11:43.600Z,8668
2018-03-22T11:12:43.592Z,9068
2018-03-22T11:13:43.538Z,8132
2018-03-22T11:14:43.530Z,10152
2018-03-22T11:15:43.256Z,9068
2018-03-22T11:16:43.241Z,8364
2018-03-22T11:17:43.522Z,8952
2018-03-22T11:18:43.499Z,10356
2018-03-22T11:19:43.560Z,12960
2018-03-22T11:20:43.246Z,11876
2018-03-22T11:21:43.206Z,11160
2018-03-22T11:22:43.179Z,9540
2018-03-22T11:23:42.954Z,10196
2018-03-22T11:24:43.428Z,10940
2018-03-22T11:25:43.136Z,9540
2018-03-22T11:26:43.433Z,10812
2018-03-22T11:27:43.430Z,10784
2018-03-22T11:28:43.134Z,12016
2018-03-22T11:29:43.158Z,11744
2018-03-22T11:30:43.433Z,11456
2018-03-22T11:31:43.439Z,11688
2018-03-22T11:32:43.392Z,11180
2018-03-22T11:33:43.392Z,10556
2018-03-22T11:34:43.590Z,10172
2018-03-22T11:35:42.829Z,11792
2018-03-22T11:36:43.328Z,10560
2018-03-22T11:37:43.070Z,11144
2018-03-22T11:38:43.281Z,11056
2018-03-22T11:39:43.027Z,11308
2018-03-22T11:40:43.271Z,12104
2018-03-22T11:41:42.784Z,11864
2018-03-22T11:42:43.010Z,11380
2018-03-22T11:43:42.968Z,9548
2018-03-22T11:44:43.300Z,9900
2018-03-22T11:45:43.257Z,9592
2018-03-22T11:46:42.955Z,9604
2018-03-22T11:47:42.938Z,9640
2018-03-22T11:48:42.935Z,7792
2018-03-22T11:49:43.193Z,8176
2018-03-22T11:50:43.376Z,9436
2018-03-22T11:51:42.862Z,8636
2018-03-22T11:52:43.131Z,8660
2018-03-22T11:53:42.594Z,9832
2018-03-22T11:54:42.818Z,10244
2018-03-22T11:55:42.839Z,11340
2018-03-22T11:56:43.078Z,11628
2018-03-22T11:57:43.047Z,9708
2018-03-22T11:58:42.777Z,10000
2018-03-22T11:59:42.773Z,9616
2018-03-22T12:00:42.759Z,9596
2018-03-22T12:01:43.013Z,9704
2018-03-22T12:02:43.020Z,10000
2018-03-22T12:03:42.514Z,10380
2018-03-22T12:04:42.233Z,9548
2018-03-22T12:05:42.451Z,10020
2018-03-22T12:06:42.973Z,9488
2018-03-22T12:07:42.954Z,9168
2018-03-22T12:08:42.981Z,8188
2018-03-22T12:09:43.101Z,7912
2018-03-22T12:10:43.029Z,8500
2018-03-22T12:11:42.718Z,7952
2018-03-22T12:12:43.031Z,6840
2018-03-22T12:13:42.929Z,6352
2018-03-22T12:14:42.901Z,5568
2018-03-22T12:15:42.686Z,5844
2018-03-22T12:16:42.853Z,6644
2018-03-22T12:17:42.580Z,7120
2018-03-22T12:18:43.225Z,5820
2018-03-22T12:19:42.348Z,5732
2018-03-22T12:20:42.824Z,5752
2018-03-22T12:21:43.080Z,6064
2018-03-22T12:22:42.545Z,5848
2018-03-22T12:23:42.563Z,6544
2018-03-22T12:24:42.258Z,6024
2018-03-22T12:25:42.590Z,6104
2018-03-22T12:26:42.761Z,5384
2018-03-22T12:27:42.262Z,6288
2018-03-22T12:28:42.737Z,6016
2018-03-22T12:29:42.909Z,5728
2018-03-22T12:30:42.445Z,5064
2018-03-22T12:31:42.449Z,5368
2018-03-22T12:32:42.687Z,5212
2018-03-22T12:33:42.410Z,5004
2018-03-22T12:34:42.157Z,4732
2018-03-22T12:35:42.660Z,4604
2018-03-22T12:36:42.399Z,5056
2018-03-22T12:37:42.649Z,4940
2018-03-22T12:38:42.664Z,5228
2018-03-22T12:39:42.463Z,4932
2018-03-22T12:40:42.404Z,5184
2018-03-22T12:41:42.875Z,5324
2018-03-22T12:42:42.331Z,5400
2018-03-22T12:43:42.468Z,5396
2018-03-22T12:44:42.348Z,5560
2018-03-22T12:45:42.291Z,6300
2018-03-22T12:46:42.542Z,6384
2018-03-22T12:47:42.517Z,7268
2018-03-22T12:48:42.249Z,7624
2018-03-22T12:49:42.258Z,7144
2018-03-22T12:50:42.283Z,7736
2018-03-22T12:51:42.236Z,7852
2018-03-22T12:52:42.270Z,9060
2018-03-22T12:53:42.206Z,8432
2018-03-22T12:54:41.959Z,8908
2018-03-22T12:55:42.438Z,9640
2018-03-22T12:56:42.183Z,9260
2018-03-22T12:57:42.180Z,8892
2018-03-22T12:58:42.416Z,8404
2018-03-22T12:59:42.191Z,9648
2018-03-22T13:00:42.124Z,8252
2018-03-22T13:01:42.398Z,9028
2018-03-22T13:02:42.127Z,8672
2018-03-22T13:03:42.390Z,8544
2018-03-22T13:04:42.345Z,7612
2018-03-22T13:05:42.376Z,7316
2018-03-22T13:06:41.580Z,7808
2018-03-22T13:07:42.311Z,8160
2018-03-22T13:08:42.044Z,6980
2018-03-22T13:09:42.042Z,6996
2018-03-22T13:10:42.274Z,6444
2018-03-22T13:11:42.277Z,6916
2018-03-22T13:12:42.386Z,7340
2018-03-22T13:13:41.998Z,7568
2018-03-22T13:14:42.026Z,7244
2018-03-22T13:15:42.226Z,7304
2018-03-22T13:16:42.234Z,7268
2018-03-22T13:17:42.203Z,6744
2018-03-22T13:18:42.303Z,7308
2018-03-22T13:19:41.421Z,6284
2018-03-22T13:20:41.940Z,6964
2018-03-22T13:21:41.905Z,6452
2018-03-22T13:22:41.909Z,6600
2018-03-22T13:23:42.139Z,6672
2018-03-22T13:24:41.899Z,6808
2018-03-22T13:25:42.132Z,7284
2018-03-22T13:26:42.149Z,6960
2018-03-22T13:27:41.870Z,6724
2018-03-22T13:28:41.873Z,6912
2018-03-22T13:29:42.076Z,7608
2018-03-22T13:30:42.077Z,7780
2018-03-22T13:31:41.813Z,7716
2018-03-22T13:32:41.796Z,7872
2018-03-22T13:33:42.074Z,8600
2018-03-22T13:34:41.811Z,8200
2018-03-22T13:35:42.038Z,7356
2018-03-22T13:36:42.019Z,7400
2018-03-22T13:37:42.002Z,7632
2018-03-22T13:38:41.988Z,6476
2018-03-22T13:39:41.741Z,6988
2018-03-22T13:40:41.742Z,6692
2018-03-22T13:41:41.971Z,6468
2018-03-22T13:42:41.944Z,5964
2018-03-22T13:43:41.697Z,6092
2018-03-22T13:44:41.925Z,5760
2018-03-22T13:45:41.678Z,5920
2018-03-22T13:46:41.654Z,5360